GMT,Max TemperatureF,Mean TemperatureF,Min TemperatureF,Max Dew PointF,MeanDew PointF,Min DewpointF,Max Humidity, Mean Humidity, Min Humidity, Max Sea Level PressureIn, Mean Sea Level PressureIn, Min Sea Level PressureIn, Max VisibilityMiles, Mean VisibilityMiles, Min VisibilityMiles, Max Wind SpeedMPH, Mean Wind SpeedMPH, Max Gust SpeedMPH,PrecipitationIn, CloudCover, Events, WindDirDegrees
2012-10-1,59,54,48,48,46,45,93,80,59,29.62,29.57,29.50,6,6,5,20,14,26,0.00,3,Rain,226
2012-10-2,55,50,44,50,45,41,93,82,72,29.53,29.45,29.30,6,6,6,15,11,,0.00,3,Rain,215
2012-10-3,55,48,41,46,42,39,93,84,58,29.50,29.38,29.27,6,6,6,17,12,,0.00,4,Rain,244
2012-10-4,55,47,39,46,41,37,100,85,67,29.62,29.58,29.53,6,6,6,13,6,,0.00,2,Rain,246
2012-10-5,53,46,39,45,41,37,100,83,62,29.71,29.56,29.44,6,6,0,12,6,,0.00,4,Fog-Rain,254
2012-10-6,55,46,35,46,41,34,100,82,54,30.06,29.86,29.71,6,6,6,10,7,,0.00,3,,256
2012-10-7,53,42,32,41,37,30,100,82,58,30.18,30.14,30.06,6,6,6,10,5,,0.00,1,,261
2012-10-8,55,44,32,43,38,30,100,81,54,30.12,30.05,29.98,6,6,6,8,3,,0.00,4,Fog,274
2012-10-9,51,40,30,39,34,28,100,83,54,30.09,30.06,30.04,6,6,2,7,2,,0.00,2,Fog,256
2012-10-10,53,40,28,43,36,28,100,88,62,30.04,29.94,29.77,6,6,1,9,2,,0.00,4,Fog,348
2012-10-11,57,50,44,50,47,43,100,90,67,29.77,29.62,29.50,6,4,2,13,4,,0.00,6,Rain,68
2012-10-12,51,48,46,50,45,41,100,87,76,29.50,29.45,29.42,6,5,1,20,9,32,0.00,6,Rain,259
2012-10-13,50,47,44,45,43,41,93,85,76,29.59,29.55,29.50,6,6,6,15,12,,0.00,6,Rain,248
2012-10-14,50,46,41,46,43,39,100,91,76,29.68,29.63,29.56,6,6,4,9,4,,0.00,6,Rain,26
2012-10-15,50,41,32,41,35,32,100,84,54,29.62,29.48,29.39,6,6,6,8,4,,0.00,3,,255
2012-10-16,44,38,32,41,38,32,100,90,81,29.50,29.36,29.24,6,6,4,15,5,,0.00,5,Rain,309
2012-10-17,48,38,28,46,40,28,100,96,87,29.50,29.37,29.30,6,5,0,14,5,,0.00,5,Fog-Rain,76
2012-10-18,53,45,37,48,45,37,100,93,82,29.68,29.49,29.39,6,6,0,10,5,,0.00,4,Fog-Rain,69
2012-10-19,50,48,46,48,47,45,100,94,87,29.77,29.74,29.65,6,6,3,13,10,,0.00,7,Rain,62
2012-10-20,55,48,42,50,45,41,100,90,67,30.04,29.88,29.74,6,5,0,12,3,,0.00,3,Fog-Rain,258
2012-10-21,55,46,35,50,43,36,100,93,77,30.24,30.13,30.04,6,6,3,7,1,,0.00,2,Fog,52
2012-10-22,48,40,32,46,42,32,100,95,87,30.36,30.31,30.24,6,4,0,12,4,,0.00,7,Fog,70
2012-10-23,51,50,48,50,49,46,100,97,93,30.42,30.39,30.36,5,2,0,9,7,,0.00,8,Fog-Rain,51
2012-10-24,50,46,41,50,46,41,100,93,82,30.39,30.31,30.24,6,6,3,12,6,,0.00,6,Fog,58
2012-10-25,51,45,39,46,40,30,100,83,62,30.24,30.21,30.18,6,6,2,15,4,26,0.00,6,Fog-Rain,24
2012-10-26,42,38,33,30,27,25,81,65,49,30.24,30.16,30.09,6,6,6,14,7,,0.00,3,,345
2012-10-27,46,37,28,41,31,25,93,75,50,30.24,30.15,29.92,6,6,6,18,7,,0.00,4,Rain,255
2012-10-28,50,44,39,46,44,39,100,89,82,29.89,29.66,29.53,6,6,6,17,12,,0.00,4,Rain,242
2012-10-29,48,42,35,43,38,34,100,89,66,29.77,29.72,29.62,6,5,0,9,3,,0.00,5,Fog,260
2012-10-30,48,42,37,45,42,36,93,88,76,29.65,29.38,29.03,6,6,4,22,12,33,0.00,5,Rain,234
2012-10-31,48,42,35,43,40,34,100,88,76,29.00,28.84,28.77,6,6,5,22,12,,0.00,5,Rain,236